Time;durP1;ratioP1;P1;durP2;ratioP2;P2;SDS_P1;SDS_P2;PMS_P1;PMS_P2;Temp;Humidity;BMP_temperature;BMP_pressure;BME280_temperature;BME280_humidity;BME280_pressure;Samples;Min_cycle;Max_cycle;Signal;HPM_P1;HPM_P2
2022/05/19 00:01:52;;;;;;;2.60;2.40;;;;;;;10.37;74.69;100917.70;1727432;82;20942;-88
2022/05/19 00:04:18;;;;;;;5.95;3.10;;;;;;;10.45;74.70;100919.05;1751016;82;21871;-88
2022/05/19 00:06:46;;;;;;;2.92;2.72;;;;;;;10.50;74.75;100919.20;1751771;82;21081;-90
2022/05/19 00:09:12;;;;;;;4.00;2.77;;;;;;;10.55;74.87;100928.95;1752085;76;21223;-89
2022/05/19 00:11:39;;;;;;;3.55;2.47;;;;;;;10.60;75.07;100937.88;1753307;76;20975;-90
2022/05/19 00:14:06;;;;;;;3.62;2.20;;;;;;;10.65;75.23;100935.88;1753908;82;20971;-88
2022/05/19 00:16:34;;;;;;;4.33;3.02;;;;;;;10.71;75.33;100939.45;1751842;82;21139;-91
2022/05/19 00:19:00;;;;;;;2.72;2.52;;;;;;;10.75;75.36;100942.28;1750831;80;20850;-90
2022/05/19 00:21:27;;;;;;;3.52;2.67;;;;;;;10.81;75.53;100939.80;1750916;81;20936;-91
2022/05/19 00:23:54;;;;;;;2.55;2.33;;;;;;;10.85;75.59;100932.58;1750610;82;20892;-90
2022/05/19 00:26:21;;;;;;;3.33;2.67;;;;;;;10.88;75.78;100928.50;1751111;80;20927;-91
2022/05/19 00:28:47;;;;;;;2.45;2.25;;;;;;;10.90;75.86;100931.41;1750781;80;21223;-90
2022/05/19 00:31:14;;;;;;;2.08;1.85;;;;;;;10.91;76.10;100926.53;1750754;82;20845;-90
2022/05/19 00:33:42;;;;;;;2.60;2.40;;;;;;;10.93;76.16;100923.83;1750691;82;21365;-91
2022/05/19 00:36:16;;;;;;;2.00;1.60;;;;;;;10.95;76.42;100932.45;1723526;82;20877;-90
2022/05/19 00:38:42;;;;;;;2.52;2.33;;;;;;;10.97;76.54;100934.06;1751119;82;20935;-92
2022/05/19 00:41:10;;;;;;;2.35;1.95;;;;;;;10.99;76.72;100930.05;1751005;80;21212;-91
2022/05/19 00:43:42;;;;;;;2.27;1.98;;;;;;;11.01;76.82;100933.43;1750689;82;20968;-91
2022/05/19 00:46:23;;;;;;;2.02;1.87;;;;;;;11.03;76.97;100923.69;1750347;82;21409;-91
2022/05/19 00:49:06;;;;;;;2.20;1.72;;;;;;;11.06;77.21;100927.92;1750023;81;20932;-90
2022/05/19 00:51:44;;;;;;;2.45;2.25;;;;;;;11.07;77.15;100933.09;1750922;80;20845;-90
2022/05/19 00:54:18;;;;;;;2.12;2.02;;;;;;;11.10;77.48;100928.97;1751099;80;21789;-88
2022/05/19 00:57:03;;;;;;;2.62;1.95;;;;;;;11.14;77.62;100933.11;1752042;82;26636;-88
2022/05/19 00:59:37;;;;;;;2.12;1.90;;;;;;;11.16;77.51;100941.75;1750892;80;20872;-91
2022/05/19 01:02:07;;;;;;;3.00;2.10;;;;;;;11.20;77.73;100931.45;1751062;82;20889;-91
2022/05/19 01:04:54;;;;;;;2.95;2.65;;;;;;;11.25;77.74;100931.19;1750578;80;21133;-91
2022/05/19 01:07:27;;;;;;;3.60;2.12;;;;;;;11.28;77.76;100932.78;1750744;80;21417;-90
2022/05/19 01:09:54;;;;;;;3.98;2.15;;;;;;;11.30;77.79;100936.17;1750395;80;20984;-91
2022/05/19 01:12:21;;;;;;;5.15;2.60;;;;;;;11.32;77.83;100938.23;1751926;82;21355;-91
2022/05/19 01:14:48;;;;;;;2.25;2.10;;;;;;;11.34;78.00;100941.15;1753190;76;20983;-92
2022/05/19 01:17:16;;;;;;;1.72;1.62;;;;;;;11.38;78.16;100947.05;1753432;80;20979;-91
2022/05/19 01:19:50;;;;;;;1.75;1.65;;;;;;;11.42;78.09;100949.88;1752765;82;21215;-90
2022/05/19 01:22:29;;;;;;;1.87;1.75;;;;;;;11.46;77.99;100955.34;1753038;80;20936;-90
2022/05/19 01:25:35;;;;;;;2.37;1.50;;;;;;;11.48;77.99;100946.06;1753369;76;21216;-91
2022/05/19 01:28:03;;;;;;;2.10;1.80;;;;;;;11.52;77.92;100952.83;1670061;83;21060;-89
2022/05/19 01:30:29;;;;;;;3.05;1.50;;;;;;;11.54;77.81;100949.17;1667404;84;21486;-92
2022/05/19 01:32:56;;;;;;;3.83;1.50;;;;;;;11.53;77.68;100944.84;1667894;86;21534;-91
2022/05/19 01:35:23;;;;;;;1.77;1.67;;;;;;;11.54;77.88;100944.40;1667526;84;21368;-92
2022/05/19 01:37:50;;;;;;;1.90;1.65;;;;;;;11.56;77.82;100942.05;1667332;84;20941;-92
2022/05/19 01:40:39;;;;;;;4.25;1.80;;;;;;;11.58;77.97;100936.25;1667544;84;20930;-91
2022/05/19 01:43:23;;;;;;;1.95;1.55;;;;;;;11.62;77.97;100938.20;1667804;84;21012;-90
2022/05/19 01:46:30;;;;;;;2.98;2.33;;;;;;;11.65;77.80;100941.11;1668138;84;21868;-88
2022/05/19 01:49:11;;;;;;;5.15;1.80;;;;;;;11.65;77.85;100947.68;1652855;84;21017;-91
2022/05/19 01:51:49;;;;;;;2.15;1.75;;;;;;;11.65;77.89;100941.98;1640857;85;21005;-92
2022/05/19 01:54:50;;;;;;;2.60;1.57;;;;;;;11.67;77.89;100949.75;1640630;86;21004;-92
2022/05/19 01:57:27;;;;;;;2.25;1.82;;;;;;;11.69;78.01;100946.56;1641097;86;20989;-92
2022/05/19 02:00:12;;;;;;;2.17;1.80;;;;;;;11.69;77.89;100942.63;1640989;86;21283;-92
2022/05/19 02:02:59;;;;;;;3.83;2.45;;;;;;;11.69;78.04;100942.63;1641075;86;21407;-89
2022/05/19 02:05:34;;;;;;;2.30;2.08;;;;;;;11.73;78.14;100948.08;1703794;82;21030;-88
2022/05/19 02:08:02;;;;;;;2.85;1.90;;;;;;;11.77;78.05;100948.28;1749597;82;21327;-90
2022/05/19 02:10:36;;;;;;;3.30;2.05;;;;;;;11.80;77.90;100950.71;1749758;80;20904;-90
2022/05/19 02:13:03;;;;;;;3.10;1.82;;;;;;;11.82;77.81;100953.62;1750110;82;21246;-90
2022/05/19 02:15:34;;;;;;;1.65;1.55;;;;;;;11.86;77.63;100952.14;1750387;82;20920;-89
2022/05/19 02:18:02;;;;;;;3.98;1.95;;;;;;;11.86;77.43;100960.02;1751586;82;20920;-87
2022/05/19 02:20:29;;;;;;;4.90;2.22;;;;;;;11.81;77.53;100958.98;1752349;81;20948;-88
2022/05/19 02:22:58;;;;;;;2.20;2.00;;;;;;;11.80;77.62;100956.84;1751325;82;20909;-89
2022/05/19 02:25:37;;;;;;;2.87;2.20;;;;;;;11.81;77.67;100962.93;1750006;82;21139;-91
2022/05/19 02:28:32;;;;;;;1.90;1.80;;;;;;;11.81;77.67;100969.02;1749657;82;20877;-92
2022/05/19 02:31:01;;;;;;;2.62;2.33;;;;;;;11.80;77.75;100968.66;1749563;81;20888;-91
2022/05/19 02:33:28;;;;;;;2.92;2.15;;;;;;;11.80;77.61;100971.29;1749845;80;20897;-90
2022/05/19 02:35:54;;;;;;;2.42;2.15;;;;;;;11.79;77.74;100974.84;1749711;80;20920;-88
2022/05/19 02:38:23;;;;;;;4.47;2.47;;;;;;;11.76;77.87;100973.72;1749946;82;21072;-87
2022/05/19 02:40:50;;;;;;;2.50;2.10;;;;;;;11.78;78.02;100977.55;1745912;80;20916;-89
2022/05/19 02:43:17;;;;;;;2.80;1.80;;;;;;;11.76;78.04;100975.03;1749803;82;21064;-89
2022/05/19 02:45:46;;;;;;;2.25;1.90;;;;;;;11.79;78.10;100977.94;1749938;80;20896;-89
2022/05/19 02:48:14;;;;;;;2.87;2.00;;;;;;;11.77;78.08;100980.64;1747284;81;21457;-89
2022/05/19 02:50:42;;;;;;;2.15;1.95;;;;;;;11.76;78.08;100976.34;1736350;82;21254;-88
2022/05/19 02:53:10;;;;;;;2.33;2.12;;;;;;;11.77;78.18;100984.59;1736684;81;20940;-89
2022/05/19 02:55:39;;;;;;;2.25;2.05;;;;;;;11.78;78.02;100984.11;1736203;82;21023;-89
2022/05/19 02:58:08;;;;;;;3.15;2.00;;;;;;;11.79;78.08;100987.97;1736150;82;20945;-89
2022/05/19 03:00:35;;;;;;;3.10;1.80;;;;;;;11.82;78.00;100986.94;1736278;82;20908;-89
2022/05/19 03:03:05;;;;;;;5.20;3.02;;;;;;;11.82;77.78;100997.45;1736241;82;21274;-89
2022/05/19 03:05:33;;;;;;;2.25;2.05;;;;;;;11.79;77.85;100988.45;1736238;82;21378;-89
2022/05/19 03:08:05;;;;;;;3.00;1.77;;;;;;;11.80;78.02;101002.82;1736675;82;21360;-89
2022/05/19 03:10:36;;;;;;;2.35;2.00;;;;;;;11.84;78.06;101003.47;1736634;81;20901;-90
2022/05/19 03:13:03;;;;;;;2.87;1.82;;;;;;;11.85;77.99;101001.67;1736621;82;20889;-90
2022/05/19 03:15:32;;;;;;;1.75;1.65;;;;;;;11.88;77.88;101001.07;1736710;81;21250;-90
2022/05/19 03:17:59;;;;;;;5.67;2.20;;;;;;;11.92;77.86;101003.06;1716422;82;20945;-87
2022/05/19 03:20:26;;;;;;;3.00;1.90;;;;;;;11.95;77.80;101010.27;1736437;82;20988;-90
2022/05/19 03:22:53;;;;;;;3.67;2.05;;;;;;;11.97;77.66;101012.34;1736734;82;20968;-90
2022/05/19 03:25:20;;;;;;;1.90;1.80;;;;;;;11.97;77.49;101011.03;1738198;81;20889;-88
2022/05/19 03:27:48;;;;;;;2.25;2.10;;;;;;;11.98;77.35;101018.00;1737256;81;21887;-88
2022/05/19 03:30:16;;;;;;;2.20;2.00;;;;;;;12.00;77.36;101015.25;1737723;82;21008;-89
2022/05/19 03:32:43;;;;;;;4.40;2.47;;;;;;;12.01;77.20;101020.91;1737095;82;20874;-90
2022/05/19 03:35:12;;;;;;;1.80;1.70;;;;;;;12.02;77.22;101025.21;1736678;81;20940;-89
2022/05/19 03:37:43;;;;;;;1.87;1.62;;;;;;;12.02;77.07;101018.64;1736607;81;20857;-89
2022/05/19 03:40:10;;;;;;;4.58;2.02;;;;;;;12.06;76.92;101023.26;1736466;82;21258;-89
2022/05/19 03:42:37;;;;;;;2.30;2.05;;;;;;;12.06;77.03;101023.26;1736761;81;21418;-88
2022/05/19 03:45:08;;;;;;;2.15;1.70;;;;;;;12.08;77.01;101027.48;1737613;82;20921;-90
2022/05/19 03:47:35;;;;;;;2.08;1.98;;;;;;;12.11;76.77;101033.86;1736915;82;20952;-89
2022/05/19 03:50:03;;;;;;;3.27;2.37;;;;;;;12.14;76.81;101019.68;1746199;80;20936;-89
2022/05/19 03:52:30;;;;;;;3.27;2.30;;;;;;;12.19;76.62;101031.62;1750522;82;21245;-89
2022/05/19 03:54:57;;;;;;;2.12;1.80;;;;;;;12.27;76.58;101029.84;1750589;82;20972;-90
2022/05/19 03:57:24;;;;;;;3.10;2.12;;;;;;;12.35;76.39;101038.12;1750787;82;21338;-88
2022/05/19 03:59:50;;;;;;;2.40;2.20;;;;;;;12.43;76.16;101027.14;1750901;82;20924;-86
2022/05/19 04:02:17;;;;;;;2.98;2.10;;;;;;;12.50;75.96;101031.08;1750942;82;20892;-87
2022/05/19 04:04:44;;;;;;;2.22;1.62;;;;;;;12.55;75.70;101038.69;1751024;80;21161;-87
2022/05/19 04:07:13;;;;;;;2.12;1.92;;;;;;;12.59;75.40;101038.88;1751251;80;20885;-87
2022/05/19 04:09:39;;;;;;;2.15;1.90;;;;;;;12.61;75.07;101039.16;1751440;82;20904;-88
2022/05/19 04:12:07;;;;;;;2.20;2.00;;;;;;;12.63;75.01;101047.80;1751454;82;21011;-87
2022/05/19 04:14:35;;;;;;;3.42;1.82;;;;;;;12.68;74.96;101043.57;1751145;82;21335;-88
2022/05/19 04:17:01;;;;;;;2.83;2.33;;;;;;;12.78;74.73;101037.25;1750511;82;21218;-88
2022/05/19 04:19:29;;;;;;;2.60;1.82;;;;;;;12.94;74.84;101043.27;1750562;80;20976;-88
2022/05/19 04:21:56;;;;;;;2.22;1.67;;;;;;;13.12;73.99;101046.52;1750845;82;21010;-87
2022/05/19 04:24:24;;;;;;;3.50;1.77;;;;;;;13.29;73.34;101047.23;1750849;80;20908;-87
2022/05/19 04:26:51;;;;;;;2.60;1.87;;;;;;;13.45;72.38;101050.56;1750639;82;20952;-87
2022/05/19 04:29:18;;;;;;;2.60;1.72;;;;;;;13.74;71.13;101057.02;1751722;81;21127;-88
2022/05/19 04:31:45;;;;;;;2.58;1.62;;;;;;;13.74;71.13;101057.02;1752452;82;20861;-89
2022/05/19 04:34:11;;;;;;;3.05;1.82;;;;;;;13.98;70.32;101054.55;1751082;82;20967;-88
2022/05/19 04:36:38;;;;;;;1.90;1.80;;;;;;;13.98;70.32;101054.55;1750990;82;20975;-90
2022/05/19 04:39:06;;;;;;;3.37;1.60;;;;;;;14.11;69.44;101060.68;1750862;80;20960;-89
2022/05/19 04:41:33;;;;;;;4.25;1.82;;;;;;;14.28;69.01;101054.27;1750683;82;21232;-89
2022/05/19 04:44:02;;;;;;;2.80;1.90;;;;;;;14.54;68.82;101059.07;1750674;82;21402;-90
2022/05/19 04:46:29;;;;;;;1.57;1.47;;;;;;;14.83;67.99;101058.83;1750722;82;21397;-90
2022/05/19 04:48:56;;;;;;;4.70;2.15;;;;;;;15.06;66.96;101063.32;1749321;81;20908;-89
2022/05/19 04:51:22;;;;;;;2.95;1.52;;;;;;;15.38;65.49;101064.59;1736960;82;20893;-89
2022/05/19 04:53:50;;;;;;;2.70;2.27;;;;;;;15.67;63.72;101061.98;1737262;81;21124;-91
2022/05/19 04:56:17;;;;;;;9.00;1.80;;;;;;;15.93;62.52;101065.81;1737051;82;20893;-89
2022/05/19 04:58:44;;;;;;;2.15;1.77;;;;;;;16.10;61.57;101065.38;1737153;81;20929;-90
2022/05/19 05:01:13;;;;;;;1.90;1.72;;;;;;;16.28;61.29;101071.06;1736678;82;21367;-91
2022/05/19 05:03:40;;;;;;;2.70;2.00;;;;;;;16.48;60.87;101070.84;1736813;82;20984;-91
2022/05/19 05:06:07;;;;;;;1.62;1.45;;;;;;;16.68;60.60;101071.11;1737112;81;21135;-89
2022/05/19 05:08:34;;;;;;;7.62;1.80;;;;;;;16.75;59.43;101070.98;1736772;82;20909;-90
2022/05/19 05:11:02;;;;;;;4.20;2.00;;;;;;;16.83;59.07;101071.71;1736863;82;20932;-89
2022/05/19 05:13:29;;;;;;;2.60;1.60;;;;;;;17.01;58.94;101074.25;1737374;82;20948;-90
2022/05/19 05:15:58;;;;;;;3.22;1.77;;;;;;;17.31;58.78;101074.05;1736820;81;20984;-89
2022/05/19 05:18:25;;;;;;;1.80;1.70;;;;;;;17.66;56.43;101078.29;1736500;82;21060;-90
2022/05/19 05:20:54;;;;;;;6.53;3.58;;;;;;;17.99;55.83;101077.32;1736655;82;20870;-88
2022/05/19 05:23:20;;;;;;;2.42;1.85;;;;;;;18.47;54.38;101082.06;1736757;82;20897;-88
2022/05/19 05:25:47;;;;;;;4.70;2.00;;;;;;;18.95;54.00;101081.47;1736480;82;21458;-87
2022/05/19 05:28:14;;;;;;;2.35;2.15;;;;;;;19.43;52.65;101086.06;1736709;82;20877;-88
2022/05/19 05:30:41;;;;;;;2.08;1.90;;;;;;;19.81;51.18;101083.09;1736555;81;21281;-88
2022/05/19 05:33:11;;;;;;;2.87;1.70;;;;;;;20.12;49.39;101082.92;1737378;81;20906;-87
2022/05/19 05:35:39;;;;;;;2.52;1.42;;;;;;;20.31;47.71;101084.69;1739890;77;20834;-87
2022/05/19 05:38:07;;;;;;;2.92;1.37;;;;;;;20.61;48.68;101080.13;1737086;82;20972;-87
2022/05/19 05:40:37;;;;;;;1.85;1.15;;;;;;;21.03;47.87;101083.19;1736586;82;20956;-88
2022/05/19 05:43:10;;;;;;;2.42;1.55;;;;;;;21.39;46.81;101084.57;1736659;82;21756;-87
2022/05/19 05:45:38;;;;;;;3.98;1.22;;;;;;;21.73;46.19;101081.25;1736421;82;20913;-88
2022/05/19 05:48:05;;;;;;;1.22;1.12;;;;;;;22.06;45.43;101077.00;1736615;81;21407;-87
2022/05/19 05:50:32;;;;;;;2.58;1.62;;;;;;;22.34;45.32;101089.77;1745383;82;20881;-88
2022/05/19 05:52:59;;;;;;;6.33;1.40;;;;;;;22.68;44.67;101082.77;1750349;82;20988;-88
2022/05/19 05:55:28;;;;;;;1.75;1.30;;;;;;;23.05;44.24;101076.23;1750720;80;21233;-88
2022/05/19 05:57:57;;;;;;;2.77;1.40;;;;;;;23.38;43.22;101084.67;1750239;82;20991;-88
2022/05/19 06:00:24;;;;;;;3.95;1.30;;;;;;;23.70;42.33;101079.52;1750524;82;20928;-88
2022/05/19 06:02:52;;;;;;;2.27;0.82;;;;;;;24.02;42.44;101077.38;1750434;80;20924;-87
2022/05/19 06:05:19;;;;;;;3.12;1.30;;;;;;;24.33;42.03;101077.50;1750848;82;21631;-86
2022/05/19 06:07:48;;;;;;;4.40;1.22;;;;;;;24.58;40.65;101074.78;1750564;80;22062;-90
2022/05/19 06:10:15;;;;;;;58.23;53.10;;;;;;;24.76;39.58;101078.05;1750553;80;20845;-88
2022/05/19 06:12:42;;;;;;;6.85;5.50;;;;;;;24.93;38.39;101078.83;1722724;82;21510;-88
2022/05/19 06:15:12;;;;;;;4.78;4.37;;;;;;;24.92;37.41;101081.20;1750407;82;20908;-88
2022/05/19 06:17:39;;;;;;;2.65;1.67;;;;;;;24.97;38.06;101078.81;1750563;80;20936;-88
2022/05/19 06:20:11;;;;;;;1.02;0.80;;;;;;;25.15;38.02;101081.23;1750863;81;21106;-86
2022/05/19 06:22:41;;;;;;;1.15;0.98;;;;;;;25.43;37.97;101083.44;1750366;80;20876;-88
2022/05/19 06:25:08;;;;;;;0.93;0.93;;;;;;;25.74;37.84;101083.88;1750460;80;20991;-88
2022/05/19 06:27:36;;;;;;;2.27;1.25;;;;;;;26.04;37.12;101080.30;1750656;82;20892;-87
2022/05/19 06:30:04;;;;;;;4.33;1.20;;;;;;;26.37;36.50;101084.00;1750514;82;20949;-88
2022/05/19 06:32:32;;;;;;;8.33;1.40;;;;;;;26.59;35.91;101079.59;1750879;82;21322;-89
2022/05/19 06:34:59;;;;;;;1.40;0.93;;;;;;;26.79;35.60;101079.85;1751161;82;20902;-87
2022/05/19 06:37:26;;;;;;;4.00;1.35;;;;;;;26.93;34.94;101075.98;1750990;82;21009;-87
2022/05/19 06:39:53;;;;;;;5.62;5.08;;;;;;;26.99;34.32;101070.67;1752681;82;21078;-85
2022/05/19 06:42:19;;;;;;;5.90;5.35;;;;;;;26.94;33.80;101078.47;1752206;80;20928;-86
2022/05/19 06:44:48;;;;;;;1.85;1.65;;;;;;;26.91;33.35;101079.38;1751506;80;21151;-87
2022/05/19 06:47:14;;;;;;;5.12;1.20;;;;;;;26.99;33.56;101082.79;1750460;80;21472;-88
2022/05/19 06:49:45;;;;;;;3.60;1.95;;;;;;;27.18;33.89;101084.03;1750726;82;20976;-88
2022/05/19 06:52:24;;;;;;;2.30;2.10;;;;;;;27.38;32.95;101088.31;1750408;82;21378;-89
2022/05/19 06:54:53;;;;;;;2.67;1.77;;;;;;;27.41;32.06;101087.95;1750656;82;20931;-86
2022/05/19 06:57:22;;;;;;;2.42;1.40;;;;;;;27.35;31.72;101090.58;1750717;82;21895;-87
2022/05/19 06:59:49;;;;;;;2.65;1.15;;;;;;;27.19;30.31;101095.14;1750760;82;20975;-87
2022/05/19 07:04:50;;;;;;;1.12;0.60;;;;;;;27.04;31.77;101088.95;1798000;79;22604;-91
2022/05/19 07:07:19;;;;;;;1.47;1.15;;;;;;;27.17;31.52;101087.77;1774834;80;20893;-88
2022/05/19 07:09:47;;;;;;;1.57;0.68;;;;;;;27.41;31.38;101086.60;1774781;81;20837;-87
2022/05/19 07:12:22;;;;;;;2.80;1.00;;;;;;;27.61;31.41;101091.33;1774029;80;20921;-88
2022/05/19 07:14:51;;;;;;;2.12;0.60;;;;;;;27.73;29.58;101088.45;1774123;80;21517;-87
2022/05/19 07:17:18;;;;;;;2.65;0.75;;;;;;;27.71;29.30;101091.85;1774174;80;20877;-88
2022/05/19 07:22:33;;;;;;;0.47;0.47;;;;;;;27.68;29.73;101090.38;1774134;81;21269;-89
2022/05/19 07:25:00;;;;;;;1.10;0.57;;;;;;;27.80;29.90;101087.16;1749273;81;21485;-88
2022/05/19 07:27:28;;;;;;;82.57;74.55;;;;;;;27.84;29.41;101089.31;1774358;80;20948;-88
2022/05/19 07:29:55;;;;;;;11.68;10.60;;;;;;;28.07;29.82;101086.37;1774292;80;20972;-88
2022/05/19 07:32:22;;;;;;;5.92;4.70;;;;;;;28.28;29.46;101092.23;1774128;80;20901;-87
2022/05/19 07:34:48;;;;;;;2.92;1.90;;;;;;;28.35;29.01;101089.58;1774504;80;21842;-87
2022/05/19 07:37:16;;;;;;;2.27;1.95;;;;;;;28.52;29.55;101087.41;1774063;80;20946;-85
2022/05/19 07:39:44;;;;;;;4.15;2.70;;;;;;;28.68;27.38;101087.11;1774121;81;20861;-84
2022/05/19 07:42:11;;;;;;;1.77;0.75;;;;;;;28.62;27.11;101086.55;1805455;78;20965;-87
2022/05/19 07:44:38;;;;;;;0.50;0.50;;;;;;;28.65;27.53;101088.02;1781645;78;20890;-86
2022/05/19 07:47:05;;;;;;;1.30;0.47;;;;;;;28.86;28.14;101086.56;1841900;78;21267;-85
2022/05/19 07:49:32;;;;;;;1.27;0.60;;;;;;;29.09;27.96;101081.37;1840848;78;20883;-84
2022/05/19 07:51:59;;;;;;;0.95;0.57;;;;;;;29.22;27.51;101079.23;1840267;78;20878;-88
2022/05/19 07:54:28;;;;;;;0.88;0.65;;;;;;;29.32;26.74;101081.00;1839778;78;20887;-88
2022/05/19 07:56:56;;;;;;;5.80;0.82;;;;;;;29.30;27.03;101083.08;1840204;78;20859;-88
2022/05/19 07:59:25;;;;;;;1.95;0.60;;;;;;;28.99;27.48;101084.41;1805852;79;21271;-89
2022/05/19 08:01:52;;;;;;;2.15;0.33;;;;;;;28.67;27.12;101090.82;1809442;79;20969;-86
2022/05/19 08:04:21;;;;;;;1.75;0.30;;;;;;;28.00;26.35;101086.84;1772988;81;21384;-87
2022/05/19 08:06:48;;;;;;;2.15;0.70;;;;;;;27.12;25.62;101076.70;1781297;79;20883;-87
2022/05/19 08:12:06;;;;;;;1.87;0.45;;;;;;;25.79;28.92;101078.80;1810525;79;21001;-87
2022/05/19 08:17:04;;;;;;;0.50;0.40;;;;;;;26.14;30.03;101071.95;1741112;79;21444;-86
2022/05/19 08:19:33;;;;;;;4.10;0.62;;;;;;;26.43;29.30;101065.77;1805332;79;20910;-87
2022/05/19 08:21:59;;;;;;;2.45;0.37;;;;;;;26.34;28.66;101064.19;1804955;79;20906;-87
2022/05/19 08:24:27;;;;;;;1.32;0.60;;;;;;;26.15;28.51;101065.58;1805663;79;21112;-87
2022/05/19 08:26:54;;;;;;;0.45;0.40;;;;;;;25.82;28.63;101065.84;1805201;79;20906;-88
2022/05/19 08:29:21;;;;;;;2.15;0.90;;;;;;;25.37;29.03;101068.89;1805447;79;20962;-87
2022/05/19 08:31:48;;;;;;;3.47;0.60;;;;;;;24.82;29.35;101074.69;1805287;79;20910;-88
2022/05/19 08:34:15;;;;;;;1.42;0.42;;;;;;;24.29;30.06;101075.34;1805343;79;20939;-88
2022/05/19 08:36:44;;;;;;;0.65;0.50;;;;;;;23.78;30.99;101083.07;1805338;79;20970;-88
2022/05/19 08:39:12;;;;;;;2.20;0.40;;;;;;;23.32;31.64;101081.81;1808621;79;20997;-88
2022/05/19 08:41:52;;;;;;;3.25;0.75;;;;;;;22.88;32.22;101079.34;1772075;81;21353;-87
2022/05/19 08:44:32;;;;;;;3.15;0.60;;;;;;;22.55;33.30;101084.02;1807573;79;20895;-87
2022/05/19 08:47:01;;;;;;;42.20;37.63;;;;;;;22.33;33.68;101081.39;1808476;79;20859;-88
2022/05/19 08:49:48;;;;;;;16.05;12.30;;;;;;;22.40;33.66;101074.08;1805144;79;21372;-87
2022/05/19 08:52:25;;;;;;;4.58;3.47;;;;;;;22.73;32.67;101068.41;1806269;79;20930;-86
2022/05/19 08:54:55;;;;;;;0.88;0.70;;;;;;;23.31;31.72;101068.11;1807024;79;20962;-86
2022/05/19 08:57:31;;;;;;;4.10;3.80;;;;;;;23.86;30.78;101066.69;1805950;79;20938;-87
2022/05/19 09:00:18;;;;;;;1.62;0.95;;;;;;;24.07;29.80;101054.09;1805647;79;21388;-87
2022/05/19 09:03:16;;;;;;;1.40;0.30;;;;;;;24.00;27.36;101065.48;1808613;79;21875;-87
2022/05/19 09:06:12;;;;;;;0.45;0.45;;;;;;;24.17;26.47;101061.46;1808285;79;20856;-88
2022/05/19 09:09:14;;;;;;;5.60;0.47;;;;;;;24.37;26.42;101053.37;1808547;79;21300;-89
2022/05/19 09:11:58;;;;;;;2.62;0.70;;;;;;;24.44;25.46;101041.96;1781959;79;21279;-89
2022/05/19 09:14:28;;;;;;;3.17;0.60;;;;;;;24.27;25.71;101058.58;1767186;81;20899;-89
2022/05/19 09:17:05;;;;;;;1.98;0.70;;;;;;;24.17;26.31;101052.91;1766998;81;21259;-88
2022/05/19 09:19:53;;;;;;;0.70;0.40;;;;;;;24.09;26.51;101045.39;1767189;81;20982;-87
2022/05/19 09:22:24;;;;;;;0.68;0.68;;;;;;;24.00;26.42;101055.28;1766487;81;21128;-88
2022/05/19 09:24:52;;;;;;;1.82;0.50;;;;;;;23.86;27.13;101051.95;1767064;81;20955;-87
2022/05/19 09:27:22;;;;;;;20.52;18.50;;;;;;;23.68;27.37;101052.92;1767117;81;21001;-87
2022/05/19 09:29:53;;;;;;;39.95;35.80;;;;;;;23.42;26.87;101053.58;1767247;81;21326;-87
2022/05/19 09:32:45;;;;;;;78.67;67.47;;;;;;;23.36;27.25;101051.05;1767385;81;21467;-88
2022/05/19 09:35:17;;;;;;;57.00;49.13;;;;;;;23.41;27.55;101057.24;1764890;81;21412;-88
2022/05/19 09:37:46;;;;;;;31.35;28.00;;;;;;;23.71;28.25;101051.75;1767186;81;20982;-88
2022/05/19 09:40:24;;;;;;;3.02;1.95;;;;;;;23.74;27.01;101048.22;1767133;81;21152;-86
2022/05/19 09:43:15;;;;;;;5.70;4.08;;;;;;;23.64;27.12;101058.28;1766422;81;21982;-89
2022/05/19 09:45:54;;;;;;;7.45;1.50;;;;;;;23.49;27.60;101055.41;1766802;81;20955;-91
2022/05/19 09:48:28;;;;;;;3.85;1.15;;;;;;;23.29;27.70;101055.39;1766519;81;20970;-89
2022/05/19 09:51:03;;;;;;;3.27;0.80;;;;;;;23.16;27.71;101048.66;1791607;79;20926;-91
2022/05/19 09:53:39;;;;;;;1.22;0.72;;;;;;;23.11;28.21;101054.19;1801184;79;20928;-88
2022/05/19 09:56:15;;;;;;;3.20;0.60;;;;;;;22.92;27.77;101052.58;1801174;79;21085;-87
2022/05/19 09:58:46;;;;;;;1.17;0.53;;;;;;;22.83;28.05;101055.72;1801816;79;20915;-86
2022/05/19 10:01:28;;;;;;;1.62;0.42;;;;;;;22.88;28.23;101057.94;1802163;79;20947;-88
2022/05/19 10:04:01;;;;;;;4.62;0.53;;;;;;;22.88;27.85;101052.09;1798078;79;20924;-88
2022/05/19 10:06:39;;;;;;;2.87;0.50;;;;;;;22.84;27.92;101048.05;1769383;81;20935;-89
2022/05/19 10:09:10;;;;;;;0.93;0.37;;;;;;;23.00;28.25;101048.63;1769263;81;21918;-88
2022/05/19 10:11:54;;;;;;;1.10;0.70;;;;;;;22.99;27.49;101052.30;1770104;81;21033;-87
2022/05/19 10:14:31;;;;;;;1.05;0.82;;;;;;;22.81;28.67;101064.44;1770867;80;20887;-89
2022/05/19 10:17:24;;;;;;;1.70;0.35;;;;;;;22.39;29.71;101065.23;1770453;81;21010;-89
2022/05/19 10:20:22;;;;;;;0.60;0.50;;;;;;;22.07;30.41;101069.83;1802703;79;20974;-88
2022/05/19 10:23:14;;;;;;;1.67;0.45;;;;;;;21.71;31.63;101066.70;1800455;79;21157;-89
2022/05/19 10:26:29;;;;;;;1.52;0.50;;;;;;;21.32;31.73;101063.00;1770381;81;21066;-88
2022/05/19 10:32:34;;;;;;;1.10;0.37;;;;;;;20.70;32.85;101064.12;1800317;79;20927;-88
2022/05/19 10:35:18;;;;;;;0.68;0.40;;;;;;;20.38;33.33;101068.97;1740245;82;21029;-90
2022/05/19 10:38:10;;;;;;;0.78;0.47;;;;;;;20.25;33.19;101065.28;1766629;81;21285;-89
2022/05/19 10:41:01;;;;;;;0.82;0.62;;;;;;;20.09;33.19;101069.38;1768200;81;21349;-88
2022/05/19 10:44:05;;;;;;;3.45;0.57;;;;;;;20.00;33.75;101070.73;1739455;81;20946;-88
2022/05/19 10:46:40;;;;;;;2.00;0.53;;;;;;;19.95;33.81;101065.84;1738562;82;20974;-89
2022/05/19 10:49:16;;;;;;;1.57;0.50;;;;;;;19.90;34.00;101072.56;1767980;81;20863;-89
2022/05/19 10:52:01;;;;;;;3.27;0.65;;;;;;;19.90;34.72;101076.09;1739593;82;21197;-89
2022/05/19 10:54:51;;;;;;;1.40;0.53;;;;;;;19.95;34.92;101070.33;1737880;82;20867;-91
2022/05/19 10:57:58;;;;;;;1.57;0.68;;;;;;;19.93;34.58;101067.80;1768126;81;20903;-90
2022/05/19 11:00:48;;;;;;;10.18;8.98;;;;;;;19.97;34.56;101066.55;1715421;82;20926;-88
2022/05/19 11:03:39;;;;;;;43.78;37.10;;;;;;;20.05;35.13;101067.15;1738454;82;20990;-87
2022/05/19 11:07:00;;;;;;;10.70;7.72;;;;;;;20.08;35.12;101070.87;1770233;81;21279;-86
2022/05/19 11:10:12;;;;;;;3.15;1.45;;;;;;;20.15;35.16;101067.15;1740597;81;20879;-87
2022/05/19 11:13:12;;;;;;;4.45;4.05;;;;;;;20.22;35.29;101063.75;1764531;81;20907;-87
2022/05/19 11:15:46;;;;;;;7.72;4.75;;;;;;;20.32;34.56;101068.20;1800361;79;20851;-86
2022/05/19 11:18:46;;;;;;;1.65;0.90;;;;;;;20.32;34.23;101067.73;1744796;81;20954;-88
2022/05/19 11:21:46;;;;;;;1.65;1.55;;;;;;;20.33;34.56;101065.91;1800022;79;21961;-88
2022/05/19 11:24:27;;;;;;;0.98;0.82;;;;;;;20.46;35.49;101065.09;1798557;79;21107;-87
2022/05/19 11:27:11;;;;;;;99.67;90.65;;;;;;;20.58;34.42;101063.11;1800195;79;20884;-86
2022/05/19 11:29:52;;;;;;;10.95;9.18;;;;;;;20.70;34.78;101060.13;1802463;79;20867;-86
2022/05/19 11:32:35;;;;;;;43.15;34.15;;;;;;;20.79;34.68;101059.73;1801915;79;20852;-86
2022/05/19 11:35:14;;;;;;;12.82;10.28;;;;;;;20.78;34.17;101056.70;1802793;79;21257;-87
2022/05/19 11:37:52;;;;;;;11.88;10.18;;;;;;;20.66;34.09;101052.57;1802348;79;20974;-87
2022/05/19 11:40:40;;;;;;;3.37;2.25;;;;;;;20.56;34.17;101059.22;1802405;79;20899;-87
2022/05/19 11:43:21;;;;;;;2.92;1.10;;;;;;;20.51;34.49;101057.50;1802156;79;21369;-87
2022/05/19 11:46:10;;;;;;;1.52;0.78;;;;;;;20.48;34.72;101060.47;1802665;79;20934;-84
2022/05/19 11:58:01;;;;;;;1.00;0.93;;;;;;;20.46;34.36;101052.61;1805470;79;20903;-86
2022/05/19 12:00:59;;;;;;;0.78;0.60;;;;;;;20.46;34.91;101041.95;1804540;79;20895;-87
2022/05/19 12:04:03;;;;;;;1.05;0.93;;;;;;;20.50;34.73;101043.34;1772158;80;21243;-88
2022/05/19 12:06:37;;;;;;;1.92;0.47;;;;;;;20.50;34.55;101046.50;1795486;80;20872;-86
2022/05/19 12:09:17;;;;;;;;;;;;;;;20.57;34.86;101041.46;1774232;81;21345;-85
2022/05/19 12:11:52;;;;;;;3.62;0.50;;;;;;;20.60;34.19;101038.49;1771463;80;20114;-84
2022/05/19 12:14:42;;;;;;;2.15;0.55;;;;;;;20.60;34.59;101037.16;1804354;79;20970;-85
2022/05/19 12:17:17;;;;;;;1.45;0.60;;;;;;;20.67;35.10;101028.41;1803831;79;21875;-87